sensor_id;sensor_type;location;lat;lon;timestamp;P1;durP1;ratioP1;P2;durP2;ratioP2
60718;SDS011;46567;51.660;5.824;2022-08-18T00:02:36;45.6;;;35.6;;
60718;SDS011;46567;51.660;5.824;2022-08-18T00:12:40;47.8;;;35.7;;
60718;SDS011;46567;51.660;5.824;2022-08-18T00:17:36;45.7;;;34.6;;
60718;SDS011;46567;51.660;5.824;2022-08-18T00:22:36;49.3;;;35.5;;
60718;SDS011;46567;51.660;5.824;2022-08-18T00:27:49;49.6;;;35.6;;
60718;SDS011;46567;51.660;5.824;2022-08-18T00:32:37;47.4;;;34.9;;
60718;SDS011;46567;51.660;5.824;2022-08-18T00:37:49;46.8;;;35.3;;
60718;SDS011;46567;51.660;5.824;2022-08-18T00:42:49;48.3;;;35.8;;
60718;SDS011;46567;51.660;5.824;2022-08-18T00:47:36;45.1;;;35.6;;
60718;SDS011;46567;51.660;5.824;2022-08-18T00:52:36;42.2;;;33.4;;
60718;SDS011;46567;51.660;5.824;2022-08-18T00:57:36;40.4;;;31.2;;
60718;SDS011;46567;51.660;5.824;2022-08-18T01:02:38;46.9;;;32.7;;
60718;SDS011;46567;51.660;5.824;2022-08-18T01:07:39;43.2;;;33.0;;
60718;SDS011;46567;51.660;5.824;2022-08-18T01:12:36;40.3;;;30.6;;
60718;SDS011;46567;51.660;5.824;2022-08-18T01:17:36;43.8;;;31.6;;
60718;SDS011;46567;51.660;5.824;2022-08-18T01:27:36;38.3;;;30.4;;
60718;SDS011;46567;51.660;5.824;2022-08-18T01:32:37;39.4;;;29.3;;
60718;SDS011;46567;51.660;5.824;2022-08-18T01:42:36;36.0;;;28.3;;
60718;SDS011;46567;51.660;5.824;2022-08-18T01:47:36;42.3;;;29.2;;
60718;SDS011;46567;51.660;5.824;2022-08-18T01:52:36;37.2;;;27.8;;
60718;SDS011;46567;51.660;5.824;2022-08-18T01:57:38;35.6;;;26.8;;
60718;SDS011;46567;51.660;5.824;2022-08-18T02:02:36;37.3;;;27.3;;
60718;SDS011;46567;51.660;5.824;2022-08-18T02:07:36;34.5;;;26.0;;
60718;SDS011;46567;51.660;5.824;2022-08-18T02:12:36;32.1;;;24.1;;
60718;SDS011;46567;51.660;5.824;2022-08-18T02:17:36;31.1;;;24.1;;
60718;SDS011;46567;51.660;5.824;2022-08-18T02:22:36;30.3;;;23.9;;
60718;SDS011;46567;51.660;5.824;2022-08-18T02:27:36;34.0;;;24.4;;
60718;SDS011;46567;51.660;5.824;2022-08-18T02:32:36;31.8;;;24.0;;
60718;SDS011;46567;51.660;5.824;2022-08-18T02:37:36;29.3;;;23.0;;
60718;SDS011;46567;51.660;5.824;2022-08-18T02:42:36;29.0;;;22.3;;
60718;SDS011;46567;51.660;5.824;2022-08-18T02:52:36;27.5;;;21.7;;
60718;SDS011;46567;51.660;5.824;2022-08-18T02:57:39;27.1;;;20.9;;
60718;SDS011;46567;51.660;5.824;2022-08-18T03:02:36;24.6;;;20.3;;
60718;SDS011;46567;51.660;5.824;2022-08-18T03:07:36;23.5;;;19.6;;
60718;SDS011;46567;51.660;5.824;2022-08-18T03:12:36;23.8;;;17.8;;
60718;SDS011;46567;51.660;5.824;2022-08-18T03:17:36;23.1;;;17.9;;
60718;SDS011;46567;51.660;5.824;2022-08-18T03:27:36;23.3;;;18.8;;
60718;SDS011;46567;51.660;5.824;2022-08-18T03:32:36;23.1;;;19.4;;
60718;SDS011;46567;51.660;5.824;2022-08-18T03:37:36;24.2;;;19.2;;
60718;SDS011;46567;51.660;5.824;2022-08-18T03:42:36;23.4;;;18.9;;
60718;SDS011;46567;51.660;5.824;2022-08-18T03:47:36;26.6;;;18.9;;
60718;SDS011;46567;51.660;5.824;2022-08-18T03:52:36;19.9;;;16.2;;
60718;SDS011;46567;51.660;5.824;2022-08-18T03:57:36;18.2;;;15.6;;
60718;SDS011;46567;51.660;5.824;2022-08-18T04:02:36;18.4;;;15.5;;
60718;SDS011;46567;51.660;5.824;2022-08-18T04:07:36;19.1;;;14.9;;
60718;SDS011;46567;51.660;5.824;2022-08-18T04:12:36;17.8;;;14.6;;
60718;SDS011;46567;51.660;5.824;2022-08-18T04:17:36;17.2;;;14.6;;
60718;SDS011;46567;51.660;5.824;2022-08-18T04:22:36;17.9;;;13.9;;
60718;SDS011;46567;51.660;5.824;2022-08-18T04:27:36;17.5;;;14.6;;
60718;SDS011;46567;51.660;5.824;2022-08-18T04:32:36;17.0;;;13.8;;
60718;SDS011;46567;51.660;5.824;2022-08-18T04:37:36;19.3;;;14.9;;
60718;SDS011;46567;51.660;5.824;2022-08-18T04:42:36;21.0;;;16.3;;
60718;SDS011;46567;51.660;5.824;2022-08-18T04:47:36;19.4;;;15.6;;
60718;SDS011;46567;51.660;5.824;2022-08-18T04:52:36;19.0;;;15.3;;
60718;SDS011;46567;51.660;5.824;2022-08-18T04:57:36;17.9;;;15.1;;
60718;SDS011;46567;51.660;5.824;2022-08-18T05:02:36;22.8;;;16.4;;
60718;SDS011;46567;51.660;5.824;2022-08-18T05:07:36;20.2;;;16.5;;
60718;SDS011;46567;51.660;5.824;2022-08-18T05:12:36;20.4;;;16.9;;
60718;SDS011;46567;51.660;5.824;2022-08-18T05:17:36;21.9;;;17.7;;
60718;SDS011;46567;51.660;5.824;2022-08-18T05:22:36;24.7;;;19.0;;
60718;SDS011;46567;51.660;5.824;2022-08-18T05:27:37;29.4;;;20.8;;
60718;SDS011;46567;51.660;5.824;2022-08-18T05:32:37;26.2;;;21.0;;
60718;SDS011;46567;51.660;5.824;2022-08-18T05:38:15;28.8;;;20.8;;
60718;SDS011;46567;51.660;5.824;2022-08-18T05:42:36;27.0;;;20.0;;
60718;SDS011;46567;51.660;5.824;2022-08-18T05:47:36;22.4;;;18.4;;
60718;SDS011;46567;51.660;5.824;2022-08-18T05:52:38;26.3;;;19.4;;
60718;SDS011;46567;51.660;5.824;2022-08-18T06:02:37;21.2;;;17.1;;
60718;SDS011;46567;51.660;5.824;2022-08-18T06:07:48;21.5;;;17.5;;
60718;SDS011;46567;51.660;5.824;2022-08-18T06:23:21;22.0;;;16.2;;
60718;SDS011;46567;51.660;5.824;2022-08-18T06:28:06;17.9;;;13.9;;
60718;SDS011;46567;51.660;5.824;2022-08-18T06:32:48;22.3;;;15.7;;
60718;SDS011;46567;51.660;5.824;2022-08-18T06:38:14;21.3;;;14.6;;
60718;SDS011;46567;51.660;5.824;2022-08-18T06:42:36;16.7;;;14.1;;
60718;SDS011;46567;51.660;5.824;2022-08-18T06:47:59;19.5;;;14.7;;
60718;SDS011;46567;51.660;5.824;2022-08-18T06:52:37;17.3;;;14.2;;
60718;SDS011;46567;51.660;5.824;2022-08-18T07:02:42;17.7;;;14.3;;
60718;SDS011;46567;51.660;5.824;2022-08-18T07:07:38;16.0;;;13.3;;
60718;SDS011;46567;51.660;5.824;2022-08-18T07:17:36;15.6;;;12.3;;
60718;SDS011;46567;51.660;5.824;2022-08-18T07:22:50;15.4;;;11.6;;
60718;SDS011;46567;51.660;5.824;2022-08-18T07:27:44;12.9;;;10.8;;
60718;SDS011;46567;51.660;5.824;2022-08-18T07:32:38;15.4;;;11.8;;
60718;SDS011;46567;51.660;5.824;2022-08-18T07:37:42;14.9;;;11.6;;
60718;SDS011;46567;51.660;5.824;2022-08-18T07:42:43;13.5;;;11.5;;
60718;SDS011;46567;51.660;5.824;2022-08-18T07:47:37;15.1;;;12.3;;
60718;SDS011;46567;51.660;5.824;2022-08-18T07:52:43;15.6;;;11.8;;
60718;SDS011;46567;51.660;5.824;2022-08-18T07:57:38;12.0;;;10.3;;
60718;SDS011;46567;51.660;5.824;2022-08-18T08:02:48;14.9;;;11.0;;
60718;SDS011;46567;51.660;5.824;2022-08-18T08:07:37;12.1;;;9.9;;
60718;SDS011;46567;51.660;5.824;2022-08-18T08:12:54;12.4;;;9.6;;
60718;SDS011;46567;51.660;5.824;2022-08-18T08:17:37;12.2;;;10.5;;
60718;SDS011;46567;51.660;5.824;2022-08-18T08:22:38;11.7;;;9.6;;
60718;SDS011;46567;51.660;5.824;2022-08-18T08:27:52;11.2;;;9.4;;
60718;SDS011;46567;51.660;5.824;2022-08-18T08:32:56;11.3;;;9.2;;
60718;SDS011;46567;51.660;5.824;2022-08-18T08:37:46;9.6;;;8.4;;
60718;SDS011;46567;51.660;5.824;2022-08-18T08:42:42;9.6;;;7.8;;
60718;SDS011;46567;51.660;5.824;2022-08-18T08:47:48;10.2;;;8.3;;
60718;SDS011;46567;51.660;5.824;2022-08-18T08:52:38;10.9;;;9.3;;
60718;SDS011;46567;51.660;5.824;2022-08-18T08:57:38;11.1;;;9.5;;
60718;SDS011;46567;51.660;5.824;2022-08-18T09:03:20;10.6;;;8.5;;
60718;SDS011;46567;51.660;5.824;2022-08-18T09:08:33;9.8;;;8.8;;
60718;SDS011;46567;51.660;5.824;2022-08-18T09:15:17;9.2;;;8.3;;
60718;SDS011;46567;51.660;5.824;2022-08-18T09:21:17;8.9;;;8.0;;
60718;SDS011;46567;51.660;5.824;2022-08-18T09:24:52;9.0;;;7.9;;
60718;SDS011;46567;51.660;5.824;2022-08-18T09:27:46;9.7;;;8.6;;
60718;SDS011;46567;51.660;5.824;2022-08-18T09:33:14;9.8;;;8.4;;
60718;SDS011;46567;51.660;5.824;2022-08-18T09:37:51;9.2;;;7.7;;
60718;SDS011;46567;51.660;5.824;2022-08-18T09:42:42;6.9;;;6.0;;
60718;SDS011;46567;51.660;5.824;2022-08-18T09:48:23;9.0;;;6.8;;
60718;SDS011;46567;51.660;5.824;2022-08-18T09:52:48;7.5;;;6.2;;
60718;SDS011;46567;51.660;5.824;2022-08-18T09:57:37;6.6;;;5.6;;
60718;SDS011;46567;51.660;5.824;2022-08-18T10:03:03;6.9;;;6.2;;
60718;SDS011;46567;51.660;5.824;2022-08-18T10:07:37;7.5;;;6.6;;
60718;SDS011;46567;51.660;5.824;2022-08-18T10:12:58;8.7;;;6.2;;
60718;SDS011;46567;51.660;5.824;2022-08-18T10:17:54;7.5;;;6.1;;
60718;SDS011;46567;51.660;5.824;2022-08-18T10:22:42;8.0;;;5.8;;
60718;SDS011;46567;51.660;5.824;2022-08-18T10:27:53;7.1;;;5.9;;
60718;SDS011;46567;51.660;5.824;2022-08-18T10:32:45;6.9;;;6.3;;
60718;SDS011;46567;51.660;5.824;2022-08-18T10:37:37;7.0;;;6.2;;
60718;SDS011;46567;51.660;5.824;2022-08-18T10:42:37;6.4;;;5.2;;
60718;SDS011;46567;51.660;5.824;2022-08-18T10:47:36;6.7;;;5.9;;
60718;SDS011;46567;51.660;5.824;2022-08-18T10:52:37;6.8;;;5.8;;
60718;SDS011;46567;51.660;5.824;2022-08-18T10:58:08;6.4;;;5.4;;
60718;SDS011;46567;51.660;5.824;2022-08-18T11:02:53;7.4;;;5.4;;
60718;SDS011;46567;51.660;5.824;2022-08-18T11:07:36;7.9;;;4.5;;
60718;SDS011;46567;51.660;5.824;2022-08-18T11:13:13;7.5;;;4.7;;
60718;SDS011;46567;51.660;5.824;2022-08-18T11:18:35;5.2;;;4.7;;
60718;SDS011;46567;51.660;5.824;2022-08-18T11:22:36;4.8;;;4.4;;
60718;SDS011;46567;51.660;5.824;2022-08-18T11:27:36;5.2;;;4.5;;
60718;SDS011;46567;51.660;5.824;2022-08-18T11:32:38;5.6;;;4.9;;
60718;SDS011;46567;51.660;5.824;2022-08-18T11:37:44;5.2;;;4.7;;
60718;SDS011;46567;51.660;5.824;2022-08-18T11:42:37;5.3;;;4.1;;
60718;SDS011;46567;51.660;5.824;2022-08-18T11:47:37;5.0;;;4.4;;
60718;SDS011;46567;51.660;5.824;2022-08-18T11:52:45;6.5;;;4.6;;
60718;SDS011;46567;51.660;5.824;2022-08-18T11:57:53;5.8;;;4.3;;
60718;SDS011;46567;51.660;5.824;2022-08-18T12:02:36;4.3;;;3.9;;
60718;SDS011;46567;51.660;5.824;2022-08-18T12:07:40;7.8;;;4.4;;
60718;SDS011;46567;51.660;5.824;2022-08-18T12:12:44;5.2;;;4.6;;
60718;SDS011;46567;51.660;5.824;2022-08-18T12:17:37;4.7;;;4.2;;
60718;SDS011;46567;51.660;5.824;2022-08-18T12:22:41;5.5;;;4.2;;
60718;SDS011;46567;51.660;5.824;2022-08-18T12:27:36;5.1;;;4.5;;
60718;SDS011;46567;51.660;5.824;2022-08-18T12:32:36;5.4;;;4.5;;
60718;SDS011;46567;51.660;5.824;2022-08-18T12:37:37;4.3;;;4.0;;
60718;SDS011;46567;51.660;5.824;2022-08-18T12:42:36;5.9;;;4.8;;
60718;SDS011;46567;51.660;5.824;2022-08-18T12:47:40;3.8;;;3.4;;
60718;SDS011;46567;51.660;5.824;2022-08-18T12:52:36;4.9;;;4.3;;
60718;SDS011;46567;51.660;5.824;2022-08-18T12:57:36;6.4;;;5.3;;
60718;SDS011;46567;51.660;5.824;2022-08-18T13:02:36;5.3;;;4.8;;
60718;SDS011;46567;51.660;5.824;2022-08-18T13:07:36;5.9;;;5.0;;
60718;SDS011;46567;51.660;5.824;2022-08-18T13:12:36;5.3;;;4.3;;
60718;SDS011;46567;51.660;5.824;2022-08-18T13:17:36;5.6;;;5.0;;
60718;SDS011;46567;51.660;5.824;2022-08-18T13:22:37;6.8;;;6.1;;
60718;SDS011;46567;51.660;5.824;2022-08-18T13:27:37;6.2;;;5.5;;
60718;SDS011;46567;51.660;5.824;2022-08-18T13:32:36;8.6;;;6.5;;
60718;SDS011;46567;51.660;5.824;2022-08-18T13:37:36;8.1;;;6.9;;
60718;SDS011;46567;51.660;5.824;2022-08-18T13:42:40;13.1;;;7.6;;
60718;SDS011;46567;51.660;5.824;2022-08-18T13:47:36;9.6;;;7.7;;
60718;SDS011;46567;51.660;5.824;2022-08-18T13:52:37;9.1;;;6.9;;
60718;SDS011;46567;51.660;5.824;2022-08-18T13:57:37;8.9;;;7.8;;
60718;SDS011;46567;51.660;5.824;2022-08-18T14:02:36;9.2;;;7.7;;
60718;SDS011;46567;51.660;5.824;2022-08-18T14:07:36;10.0;;;8.7;;
60718;SDS011;46567;51.660;5.824;2022-08-18T14:12:36;11.3;;;8.9;;
60718;SDS011;46567;51.660;5.824;2022-08-18T14:17:36;10.2;;;9.0;;
60718;SDS011;46567;51.660;5.824;2022-08-18T14:22:36;9.4;;;8.5;;
60718;SDS011;46567;51.660;5.824;2022-08-18T14:27:38;10.2;;;9.1;;
60718;SDS011;46567;51.660;5.824;2022-08-18T14:32:37;10.2;;;7.7;;
60718;SDS011;46567;51.660;5.824;2022-08-18T14:37:36;8.1;;;7.3;;
60718;SDS011;46567;51.660;5.824;2022-08-18T14:42:36;8.8;;;7.8;;
60718;SDS011;46567;51.660;5.824;2022-08-18T14:47:36;9.4;;;8.1;;
60718;SDS011;46567;51.660;5.824;2022-08-18T14:52:36;9.3;;;6.9;;
60718;SDS011;46567;51.660;5.824;2022-08-18T14:57:36;7.3;;;6.4;;
60718;SDS011;46567;51.660;5.824;2022-08-18T15:02:36;7.1;;;6.2;;
60718;SDS011;46567;51.660;5.824;2022-08-18T15:07:36;9.1;;;6.5;;
60718;SDS011;46567;51.660;5.824;2022-08-18T15:12:36;7.6;;;6.3;;
60718;SDS011;46567;51.660;5.824;2022-08-18T15:17:36;7.6;;;6.6;;
60718;SDS011;46567;51.660;5.824;2022-08-18T15:22:37;7.0;;;6.4;;
60718;SDS011;46567;51.660;5.824;2022-08-18T15:27:37;8.0;;;7.1;;
60718;SDS011;46567;51.660;5.824;2022-08-18T15:32:36;8.0;;;6.9;;
60718;SDS011;46567;51.660;5.824;2022-08-18T15:37:36;7.8;;;7.1;;
60718;SDS011;46567;51.660;5.824;2022-08-18T15:42:36;8.0;;;7.0;;
60718;SDS011;46567;51.660;5.824;2022-08-18T15:47:36;7.3;;;6.0;;
60718;SDS011;46567;51.660;5.824;2022-08-18T15:52:37;7.1;;;6.4;;
60718;SDS011;46567;51.660;5.824;2022-08-18T15:57:36;7.3;;;6.7;;
60718;SDS011;46567;51.660;5.824;2022-08-18T16:02:36;8.5;;;7.1;;
60718;SDS011;46567;51.660;5.824;2022-08-18T16:07:36;7.4;;;6.7;;
60718;SDS011;46567;51.660;5.824;2022-08-18T16:12:36;6.4;;;5.8;;
60718;SDS011;46567;51.660;5.824;2022-08-18T16:17:36;7.0;;;6.4;;
60718;SDS011;46567;51.660;5.824;2022-08-18T16:22:36;6.4;;;5.9;;
60718;SDS011;46567;51.660;5.824;2022-08-18T16:27:37;6.5;;;5.9;;
60718;SDS011;46567;51.660;5.824;2022-08-18T16:32:36;6.7;;;6.1;;
60718;SDS011;46567;51.660;5.824;2022-08-18T16:37:36;6.3;;;5.7;;
60718;SDS011;46567;51.660;5.824;2022-08-18T16:42:36;7.1;;;6.6;;
60718;SDS011;46567;51.660;5.824;2022-08-18T16:47:36;6.8;;;6.2;;
60718;SDS011;46567;51.660;5.824;2022-08-18T16:52:37;7.3;;;6.7;;
60718;SDS011;46567;51.660;5.824;2022-08-18T16:57:37;8.6;;;7.8;;
60718;SDS011;46567;51.660;5.824;2022-08-18T17:02:36;8.6;;;7.8;;
60718;SDS011;46567;51.660;5.824;2022-08-18T17:07:37;8.7;;;8.0;;
60718;SDS011;46567;51.660;5.824;2022-08-18T17:12:36;8.7;;;7.6;;
60718;SDS011;46567;51.660;5.824;2022-08-18T17:17:36;8.4;;;7.6;;
60718;SDS011;46567;51.660;5.824;2022-08-18T17:22:36;8.1;;;7.3;;
60718;SDS011;46567;51.660;5.824;2022-08-18T17:27:36;7.9;;;7.1;;
60718;SDS011;46567;51.660;5.824;2022-08-18T17:32:46;7.3;;;6.6;;
60718;SDS011;46567;51.660;5.824;2022-08-18T17:37:38;7.9;;;7.2;;
60718;SDS011;46567;51.660;5.824;2022-08-18T17:42:36;7.6;;;6.9;;
60718;SDS011;46567;51.660;5.824;2022-08-18T17:47:41;8.4;;;7.3;;
60718;SDS011;46567;51.660;5.824;2022-08-18T17:52:37;7.3;;;6.4;;
60718;SDS011;46567;51.660;5.824;2022-08-18T17:57:47;10.3;;;7.4;;
60718;SDS011;46567;51.660;5.824;2022-08-18T18:02:37;10.4;;;8.8;;
60718;SDS011;46567;51.660;5.824;2022-08-18T18:07:37;10.0;;;8.2;;
60718;SDS011;46567;51.660;5.824;2022-08-18T18:12:37;10.0;;;8.6;;
60718;SDS011;46567;51.660;5.824;2022-08-18T18:17:37;11.2;;;9.7;;
60718;SDS011;46567;51.660;5.824;2022-08-18T18:22:37;12.1;;;11.0;;
60718;SDS011;46567;51.660;5.824;2022-08-18T18:27:40;11.9;;;10.7;;
60718;SDS011;46567;51.660;5.824;2022-08-18T18:32:49;10.9;;;9.9;;
60718;SDS011;46567;51.660;5.824;2022-08-18T18:37:43;11.3;;;10.2;;
60718;SDS011;46567;51.660;5.824;2022-08-18T18:42:36;11.5;;;9.9;;
60718;SDS011;46567;51.660;5.824;2022-08-18T18:47:43;12.2;;;10.7;;
60718;SDS011;46567;51.660;5.824;2022-08-18T18:52:52;11.4;;;10.2;;
60718;SDS011;46567;51.660;5.824;2022-08-18T18:58:05;10.5;;;9.3;;
60718;SDS011;46567;51.660;5.824;2022-08-18T19:02:38;12.2;;;10.0;;
60718;SDS011;46567;51.660;5.824;2022-08-18T19:07:45;11.4;;;10.3;;
60718;SDS011;46567;51.660;5.824;2022-08-18T19:12:38;12.7;;;11.0;;
60718;SDS011;46567;51.660;5.824;2022-08-18T19:17:37;10.9;;;9.6;;
60718;SDS011;46567;51.660;5.824;2022-08-18T19:22:41;10.4;;;9.3;;
60718;SDS011;46567;51.660;5.824;2022-08-18T19:27:41;10.9;;;9.8;;
60718;SDS011;46567;51.660;5.824;2022-08-18T19:32:42;11.8;;;10.5;;
60718;SDS011;46567;51.660;5.824;2022-08-18T19:37:54;11.6;;;10.4;;
60718;SDS011;46567;51.660;5.824;2022-08-18T19:42:38;11.4;;;10.4;;
60718;SDS011;46567;51.660;5.824;2022-08-18T19:47:38;13.4;;;11.5;;
60718;SDS011;46567;51.660;5.824;2022-08-18T19:53:10;12.2;;;10.8;;
60718;SDS011;46567;51.660;5.824;2022-08-18T19:59:29;12.0;;;10.7;;
60718;SDS011;46567;51.660;5.824;2022-08-18T20:05:21;12.3;;;11.1;;
60718;SDS011;46567;51.660;5.824;2022-08-18T20:12:33;10.7;;;9.6;;
60718;SDS011;46567;51.660;5.824;2022-08-18T20:14:20;11.3;;;10.0;;
60718;SDS011;46567;51.660;5.824;2022-08-18T20:17:36;11.4;;;9.9;;
60718;SDS011;46567;51.660;5.824;2022-08-18T20:22:37;10.4;;;9.4;;
60718;SDS011;46567;51.660;5.824;2022-08-18T20:27:38;12.2;;;10.9;;
60718;SDS011;46567;51.660;5.824;2022-08-18T20:32:36;12.2;;;10.9;;
60718;SDS011;46567;51.660;5.824;2022-08-18T20:37:36;12.8;;;11.1;;
60718;SDS011;46567;51.660;5.824;2022-08-18T20:42:46;11.9;;;10.2;;
60718;SDS011;46567;51.660;5.824;2022-08-18T20:48:18;12.3;;;10.9;;
60718;SDS011;46567;51.660;5.824;2022-08-18T20:53:11;12.4;;;11.0;;
60718;SDS011;46567;51.660;5.824;2022-08-18T20:57:36;12.6;;;11.4;;
60718;SDS011;46567;51.660;5.824;2022-08-18T21:02:37;13.0;;;11.6;;
60718;SDS011;46567;51.660;5.824;2022-08-18T21:07:38;13.2;;;11.9;;
60718;SDS011;46567;51.660;5.824;2022-08-18T21:12:36;12.7;;;11.4;;
60718;SDS011;46567;51.660;5.824;2022-08-18T21:17:37;12.2;;;11.0;;
60718;SDS011;46567;51.660;5.824;2022-08-18T21:22:40;11.5;;;10.4;;
60718;SDS011;46567;51.660;5.824;2022-08-18T21:27:37;12.9;;;11.5;;
60718;SDS011;46567;51.660;5.824;2022-08-18T21:32:36;12.1;;;10.6;;
60718;SDS011;46567;51.660;5.824;2022-08-18T21:37:39;12.2;;;10.9;;
60718;SDS011;46567;51.660;5.824;2022-08-18T21:47:38;12.7;;;10.9;;
60718;SDS011;46567;51.660;5.824;2022-08-18T21:52:37;11.6;;;9.7;;
60718;SDS011;46567;51.660;5.824;2022-08-18T21:57:50;11.8;;;10.2;;
60718;SDS011;46567;51.660;5.824;2022-08-18T22:02:36;12.1;;;10.9;;
60718;SDS011;46567;51.660;5.824;2022-08-18T22:07:44;12.6;;;10.9;;
60718;SDS011;46567;51.660;5.824;2022-08-18T22:12:36;12.5;;;11.0;;
60718;SDS011;46567;51.660;5.824;2022-08-18T22:17:50;12.9;;;11.5;;
60718;SDS011;46567;51.660;5.824;2022-08-18T22:22:36;12.9;;;11.7;;
60718;SDS011;46567;51.660;5.824;2022-08-18T22:27:36;13.7;;;11.5;;
60718;SDS011;46567;51.660;5.824;2022-08-18T22:32:37;13.5;;;11.1;;
60718;SDS011;46567;51.660;5.824;2022-08-18T22:37:43;13.8;;;12.1;;
60718;SDS011;46567;51.660;5.824;2022-08-18T22:42:37;13.3;;;11.4;;
60718;SDS011;46567;51.660;5.824;2022-08-18T22:47:36;12.3;;;11.1;;
60718;SDS011;46567;51.660;5.824;2022-08-18T22:52:41;13.2;;;11.6;;
60718;SDS011;46567;51.660;5.824;2022-08-18T22:57:37;14.6;;;12.0;;
60718;SDS011;46567;51.660;5.824;2022-08-18T23:02:36;15.1;;;12.7;;
60718;SDS011;46567;51.660;5.824;2022-08-18T23:07:37;17.0;;;13.8;;
60718;SDS011;46567;51.660;5.824;2022-08-18T23:12:36;20.8;;;16.9;;
60718;SDS011;46567;51.660;5.824;2022-08-18T23:17:36;23.1;;;18.5;;
60718;SDS011;46567;51.660;5.824;2022-08-18T23:27:36;17.5;;;15.1;;
60718;SDS011;46567;51.660;5.824;2022-08-18T23:32:36;18.4;;;15.2;;
60718;SDS011;46567;51.660;5.824;2022-08-18T23:47:36;18.0;;;14.5;;
60718;SDS011;46567;51.660;5.824;2022-08-18T23:52:37;18.7;;;15.4;;
60718;SDS011;46567;51.660;5.824;2022-08-18T23:57:37;17.4;;;13.6;;
